デリー の空港の天気 - METARとTAF

インディラ・ガンディー国際空港 ( VIDP / DEL ) - インド デリー
飛行場実況気象(Metar)
観測時間05/28 16:30 IST (05/28 11:00 UTC)
風向・風速南南西 3m/s
視程3500m
天気現象煙霧
少しの雲 雲底高度 1070m
少しの雲 雲底高度 1220m
全天の4割程度の雲 雲底高度 3050m
気温40℃
湿度32%
気圧997hPa
METARVIDP 281100Z 21006KT 3500 HZ FEW035 FEW040CB SCT100 40/20 Q0997 NOSIG
過去の天気等 Google飛行場航空写真 Wunderground天気予報

過去48時間のMETAR

飛行場予報(TAF)
発表時間: 5/28 13:30 IST (5/28 08:00 UTC)
予報対象時間: 28日14時 IST ~ 28日23時 IST
風向・風速西北西 5m/s 瞬間風速 10m/s
視程3500m
天気現象風塵
少しの雲 雲底高度 1070m
全天の4割程度の雲 雲底高度 3050m
28日15時 IST ~ 28日19時 IST に一時的に
風向・風速北西 8m/s 瞬間風速 18m/s
視程1000m
天気現象塵嵐 雷
全天の4割程度の雲 雲底高度 1070m
少しの積乱雲 雲底高度 1220m
全天の8割程度の雲 雲底高度 3050m
28日21時 IST ~ 28日23時 IST に徐々に
風向・風速西 3m/s
視程2800m
天気現象風塵
少しの雲 雲底高度 1070m
全天の4割程度の雲 雲底高度 3050m
TAF VIDP 280800Z 2809/2818 29010G20KT 3500 DU FEW035 SCT100
TEMPO 2810/2814 31015G35KT 1000 DS TS SCT035 FEW040CB BKN100
BECMG 2816/2818 26006KT 2800 DU FEW035 SCT100